Folletts, Iowa
Current Conditions -  °F | °C
As of 8:15 AM on Monday 26 Jan 2015 (Local Time) from KCWI Reporting Station
Overcast Overcast  
Wind Chill:   Ceiling: 2300
Heat Index: 19°   Visibility: 10mi
Dew Point: 14°   Wind: 9mph
Humidity: 80%   Direction: 150°SSE
Pressure: 29.96"   Gusts: NA
Location:  41.7772°N, 90.3074°W
Report Text: KCWI 261415Z AUTO 15008KT 10SM BKN023 BKN029 OVC043 M07/M10 A2996 RMK AO1
Loading
Personal Weather Stations






























Interactive Weather Map New forecast layout! Learn more

10-Day Weather Forecast

Advertisements
Track Severe Weather on mobile